createdAt,value
2018-04-28T00:00:50.805Z,7.60
2018-04-28T00:03:18.902Z,8.37
2018-04-28T00:05:51.588Z,8.40
2018-04-28T00:08:25.259Z,6.97
2018-04-28T00:10:53.364Z,8.50
2018-04-28T00:13:33.477Z,7.43
2018-04-28T00:16:05.140Z,6.30
2018-04-28T00:18:40.369Z,6.80
2018-04-28T00:21:08.465Z,6.13
2018-04-28T00:23:41.054Z,8.33
2018-04-28T00:26:15.950Z,7.47
2018-04-28T00:28:55.782Z,7.00
2018-04-28T00:31:31.501Z,9.33
2018-04-28T00:34:11.292Z,6.10
2018-04-28T00:39:56.178Z,8.47
2018-04-28T00:45:32.710Z,6.20
2018-04-28T00:48:00.807Z,6.03
2018-04-28T00:50:37.322Z,6.77
2018-04-28T00:53:05.397Z,6.90
2018-04-28T00:55:37.998Z,8.70
2018-04-28T01:01:37.888Z,6.90
2018-04-28T01:04:16.411Z,7.17
2018-04-28T01:06:45.499Z,6.57
2018-04-28T01:09:14.353Z,6.77
2018-04-28T01:11:45.157Z,7.23
2018-04-28T01:14:14.833Z,6.60
2018-04-28T01:16:47.532Z,6.77
2018-04-28T01:19:18.268Z,7.30
2018-04-28T01:21:47.123Z,6.53
2018-04-28T01:24:30.287Z,7.30
2018-04-28T01:27:12.262Z,7.90
2018-04-28T01:35:46.754Z,7.00
2018-04-28T01:38:35.796Z,7.27
2018-04-28T01:41:11.669Z,9.40
2018-04-28T01:46:46.983Z,7.43
2018-04-28T01:49:17.934Z,9.20
2018-04-28T01:52:08.749Z,7.90
2018-04-28T01:54:45.687Z,9.20
2018-04-28T01:57:28.641Z,8.07
2018-04-28T02:00:08.393Z,9.00
2018-04-28T02:02:49.773Z,7.63
2018-04-28T02:05:25.459Z,6.90
2018-04-28T02:07:53.554Z,7.27
2018-04-28T02:10:29.838Z,6.63
2018-04-28T02:13:03.507Z,7.20
2018-04-28T02:15:32.558Z,7.47
2018-04-28T02:18:07.226Z,6.57
2018-04-28T02:20:44.772Z,7.47
2018-04-28T02:23:14.773Z,7.17
2018-04-28T02:25:59.336Z,8.10
2018-04-28T02:28:46.331Z,7.30
2018-04-28T02:31:23.986Z,7.03
2018-04-28T02:37:05.241Z,8.13
2018-04-28T02:42:52.485Z,6.87
2018-04-28T02:45:24.969Z,6.80
2018-04-28T02:48:02.712Z,6.87
2018-04-28T02:50:30.783Z,9.70
2018-04-28T02:53:11.680Z,7.13
2018-04-28T02:58:49.140Z,6.30
2018-04-28T03:04:35.132Z,7.50
2018-04-28T03:07:15.863Z,6.67
2018-04-28T03:09:47.150Z,7.37
2018-04-28T03:12:19.519Z,6.77
2018-04-28T03:14:56.810Z,8.37
2018-04-28T03:17:30.595Z,6.63
2018-04-28T03:20:03.713Z,7.77
2018-04-28T03:22:36.094Z,7.60
2018-04-28T03:25:29.147Z,7.63
2018-04-28T03:28:00.006Z,6.97
2018-04-28T03:33:34.596Z,7.83
2018-04-28T03:36:19.906Z,6.63
2018-04-28T03:38:53.827Z,8.13
2018-04-28T03:41:25.643Z,6.97
2018-04-28T03:44:09.142Z,7.07
2018-04-28T03:46:42.129Z,7.53
2018-04-28T03:49:13.034Z,7.70
2018-04-28T03:51:48.669Z,7.03
2018-04-28T03:57:41.323Z,7.13
2018-04-28T04:00:21.917Z,7.17
2018-04-28T04:03:03.998Z,7.83
2018-04-28T04:05:34.997Z,6.40
2018-04-28T04:11:08.693Z,6.90
2018-04-28T04:13:46.410Z,6.87
2018-04-28T04:16:21.283Z,7.87
2018-04-28T04:21:43.768Z,7.27
2018-04-28T04:24:20.383Z,8.40
2018-04-28T04:27:11.122Z,7.47
2018-04-28T04:32:40.752Z,10.57
2018-04-28T04:38:16.339Z,6.87
2018-04-28T04:41:05.165Z,7.17
2018-04-28T04:43:40.665Z,7.17
2018-04-28T04:49:28.380Z,6.80
2018-04-28T04:54:53.370Z,8.07
2018-04-28T04:57:33.282Z,6.47
2018-04-28T05:03:36.062Z,7.20
2018-04-28T05:06:07.680Z,8.37
2018-04-28T05:08:43.758Z,6.67
2018-04-28T05:14:33.148Z,6.83
2018-04-28T05:17:07.043Z,8.00
2018-04-28T05:20:05.085Z,9.03
2018-04-28T05:25:39.652Z,6.73
2018-04-28T05:28:13.475Z,6.03
2018-04-28T05:31:02.658Z,7.57
2018-04-28T05:33:38.051Z,7.50
2018-04-28T05:36:08.715Z,6.47
2018-04-28T05:38:52.292Z,5.97
2018-04-28T05:41:32.216Z,5.93
2018-04-28T05:44:13.502Z,5.60
2018-04-28T05:50:04.263Z,7.03
2018-04-28T05:52:44.219Z,5.80
2018-04-28T05:55:24.719Z,6.47
2018-04-28T05:58:01.489Z,5.87
2018-04-28T06:00:40.125Z,6.67
2018-04-28T06:06:26.602Z,6.37
2018-04-28T06:09:21.029Z,6.10
2018-04-28T06:11:52.770Z,6.33
2018-04-28T06:14:32.669Z,7.07
2018-04-28T06:23:15.101Z,6.60
2018-04-28T06:25:44.729Z,7.43
2018-04-28T06:28:12.838Z,8.37
2018-04-28T06:30:45.231Z,6.63
2018-04-28T06:33:13.394Z,7.30
2018-04-28T06:35:41.580Z,5.80
2018-04-28T06:38:11.532Z,6.90
2018-04-28T06:40:43.212Z,5.80
2018-04-28T06:43:12.778Z,6.30
2018-04-28T06:45:43.956Z,7.03
2018-04-28T06:48:12.948Z,6.33
2018-04-28T06:50:41.061Z,6.73
2018-04-28T06:53:10.174Z,6.53
2018-04-28T06:55:38.301Z,6.00
2018-04-28T06:58:06.471Z,6.40
2018-04-28T07:00:35.609Z,6.80
2018-04-28T07:03:04.523Z,6.60
2018-04-28T07:05:33.533Z,5.83
2018-04-28T07:08:01.656Z,5.53
2018-04-28T07:10:31.681Z,6.97
2018-04-28T07:13:06.763Z,5.80
2018-04-28T07:15:36.159Z,5.80
2018-04-28T07:21:11.715Z,7.50
2018-04-28T07:23:39.844Z,5.53
2018-04-28T07:26:08.940Z,7.70
2018-04-28T07:28:39.065Z,7.07
2018-04-28T07:31:09.167Z,7.00
2018-04-28T07:33:40.818Z,6.63
2018-04-28T07:39:07.534Z,6.37
2018-04-28T07:41:35.730Z,6.30
2018-04-28T07:44:04.850Z,6.97
2018-04-28T07:46:32.979Z,7.43
2018-04-28T07:49:01.084Z,6.33
2018-04-28T07:51:29.250Z,6.13
2018-04-28T07:54:03.125Z,7.30
2018-04-28T07:56:32.137Z,7.47
2018-04-28T07:59:01.286Z,6.60
2018-04-28T08:01:31.337Z,5.93
2018-04-28T08:04:00.204Z,6.20
2018-04-28T08:06:33.090Z,6.10
2018-04-28T08:09:02.040Z,7.97
2018-04-28T08:11:30.173Z,7.60
2018-04-28T08:13:58.272Z,7.17
2018-04-28T08:16:27.137Z,6.40
2018-04-28T08:18:55.345Z,8.70
2018-04-28T08:21:25.236Z,6.30
2018-04-28T08:23:53.403Z,6.13
2018-04-28T08:26:21.485Z,6.57
2018-04-28T08:28:49.600Z,8.40
2018-04-28T08:31:18.274Z,5.60
2018-04-28T08:33:47.383Z,7.40
2018-04-28T08:36:16.435Z,8.60
2018-04-28T08:38:47.609Z,5.70
2018-04-28T08:41:17.533Z,5.53
2018-04-28T08:43:47.386Z,7.33
2018-04-28T08:46:15.471Z,5.07
2018-04-28T08:48:43.680Z,10.43
2018-04-28T08:51:13.681Z,6.10
2018-04-28T08:53:49.786Z,7.03
2018-04-28T08:56:23.509Z,12.70
2018-04-28T08:58:51.703Z,8.10
2018-04-28T09:01:22.930Z,7.37
2018-04-28T09:03:51.060Z,9.13
2018-04-28T09:06:19.154Z,8.10
2018-04-28T09:08:48.068Z,8.53
2018-04-28T09:11:17.541Z,8.60
2018-04-28T09:13:47.532Z,9.27
2018-04-28T09:16:16.677Z,11.27
2018-04-28T09:18:44.866Z,8.70
2018-04-28T09:21:12.972Z,7.83
2018-04-28T09:23:41.079Z,8.13
2018-04-28T09:26:10.992Z,10.80
2018-04-28T09:28:39.066Z,7.50
2018-04-28T09:31:07.175Z,8.77
2018-04-28T09:33:35.446Z,9.77
2018-04-28T09:36:06.249Z,8.47
2018-04-28T09:38:35.205Z,8.77
2018-04-28T09:41:05.262Z,7.23
2018-04-28T09:43:34.364Z,7.70
2018-04-28T09:46:07.065Z,9.57
2018-04-28T09:48:36.137Z,7.90
2018-04-28T09:51:04.225Z,7.60
2018-04-28T09:53:36.391Z,9.20
2018-04-28T09:56:04.623Z,8.63
2018-04-28T09:58:41.386Z,11.10
2018-04-28T10:01:20.920Z,7.93
2018-04-28T10:03:53.975Z,7.63
2018-04-28T10:06:22.326Z,8.70
2018-04-28T10:08:51.232Z,8.03
2018-04-28T10:11:20.338Z,10.63
2018-04-28T10:14:00.128Z,6.93
2018-04-28T10:16:34.753Z,7.70
2018-04-28T10:19:04.971Z,7.13
2018-04-28T10:21:46.382Z,5.37
2018-04-28T10:24:16.491Z,7.93
2018-04-28T10:26:50.271Z,5.33
2018-04-28T10:29:32.515Z,6.50
2018-04-28T10:32:00.876Z,6.90
2018-04-28T10:34:29.991Z,9.00
2018-04-28T10:36:58.212Z,6.53
2018-04-28T10:39:32.737Z,9.53
2018-04-28T10:42:01.778Z,6.23
2018-04-28T10:44:29.921Z,5.80
2018-04-28T10:46:59.084Z,5.07
2018-04-28T10:49:27.244Z,5.37
2018-04-28T10:51:55.337Z,5.67
2018-04-28T10:54:23.571Z,6.00
2018-04-28T10:56:51.890Z,6.60
2018-04-28T10:59:20.138Z,3.57
2018-04-28T11:01:48.359Z,6.87
2018-04-28T11:04:20.493Z,8.37
2018-04-28T11:06:59.205Z,5.80
2018-04-28T11:09:28.308Z,7.40
2018-04-28T11:12:01.873Z,4.33
2018-04-28T11:14:29.984Z,7.03
2018-04-28T11:17:01.590Z,5.67
2018-04-28T11:19:29.700Z,4.90
2018-04-28T11:22:01.894Z,6.33
2018-04-28T11:24:31.001Z,8.73
2018-04-28T11:27:10.910Z,4.60
2018-04-28T11:29:45.476Z,6.13
2018-04-28T11:32:20.463Z,6.23
2018-04-28T11:34:48.592Z,5.60
2018-04-28T11:37:17.784Z,4.90
2018-04-28T11:39:51.846Z,6.30
2018-04-28T11:42:19.926Z,6.37
2018-04-28T11:44:48.039Z,5.33
2018-04-28T11:47:18.272Z,5.63
2018-04-28T11:49:46.394Z,5.60
2018-04-28T11:52:14.553Z,5.93
2018-04-28T11:54:44.670Z,10.83
2018-04-28T11:57:12.764Z,6.57
2018-04-28T11:59:42.928Z,6.20
2018-04-28T12:02:11.054Z,5.20
2018-04-28T12:04:40.147Z,10.13
2018-04-28T12:07:08.242Z,6.07
2018-04-28T12:09:39.979Z,6.83
2018-04-28T12:12:09.533Z,6.53
2018-04-28T12:14:37.850Z,5.83
2018-04-28T12:17:11.237Z,8.50
2018-04-28T12:19:41.038Z,5.97
2018-04-28T12:22:09.262Z,5.60
2018-04-28T12:24:41.889Z,5.47
2018-04-28T12:27:16.120Z,5.23
2018-04-28T12:29:44.530Z,4.03
2018-04-28T12:32:18.861Z,6.77
2018-04-28T12:34:46.967Z,5.40
2018-04-28T12:37:19.470Z,5.90
2018-04-28T12:39:51.311Z,5.40
2018-04-28T12:42:19.511Z,8.03
2018-04-28T12:44:47.616Z,6.13
2018-04-28T12:47:19.989Z,5.77
2018-04-28T12:49:54.432Z,7.63
2018-04-28T12:52:22.561Z,5.27
2018-04-28T12:54:50.679Z,7.77
2018-04-28T12:57:19.942Z,4.83
2018-04-28T12:59:48.175Z,7.23
2018-04-28T13:02:16.403Z,8.10
2018-04-28T13:04:46.373Z,8.20
2018-04-28T13:07:21.275Z,5.77
2018-04-28T13:09:50.504Z,6.27
2018-04-28T13:12:20.513Z,5.87
2018-04-28T13:14:49.430Z,3.90
2018-04-28T13:17:18.567Z,7.90
2018-04-28T13:19:47.594Z,9.43
2018-04-28T13:22:16.929Z,4.63
2018-04-28T13:24:45.189Z,7.80
2018-04-28T13:27:13.349Z,5.90
2018-04-28T13:29:41.481Z,5.10
2018-04-28T13:32:12.357Z,5.63
2018-04-28T13:34:41.223Z,7.83
2018-04-28T13:37:10.265Z,5.17
2018-04-28T13:39:39.374Z,5.00
2018-04-28T13:42:08.263Z,5.30
2018-04-28T13:44:37.344Z,4.47
2018-04-28T13:47:12.313Z,4.90
2018-04-28T13:49:41.468Z,3.87
2018-04-28T13:52:10.622Z,5.60
2018-04-28T13:54:40.725Z,6.93
2018-04-28T13:57:09.888Z,4.40
2018-04-28T13:59:39.770Z,4.90
2018-04-28T14:02:08.916Z,5.20
2018-04-28T14:04:37.070Z,6.77
2018-04-28T14:07:16.180Z,5.37
2018-04-28T14:09:45.095Z,6.77
2018-04-28T14:12:14.853Z,3.83
2018-04-28T14:14:42.956Z,4.43
2018-04-28T14:17:11.268Z,5.27
2018-04-28T14:19:39.408Z,3.53
2018-04-28T14:22:07.595Z,4.07
2018-04-28T14:24:35.957Z,5.53
2018-04-28T14:27:05.049Z,4.33
2018-04-28T14:29:36.571Z,8.13
2018-04-28T14:32:05.754Z,3.23
2018-04-28T14:34:34.913Z,4.70
2018-04-28T14:37:04.010Z,5.77
2018-04-28T14:39:33.193Z,5.40
2018-04-28T14:42:01.272Z,3.50
2018-04-28T14:44:29.413Z,4.57
2018-04-28T14:46:57.688Z,3.37
2018-04-28T14:49:26.671Z,7.17
2018-04-28T14:51:56.712Z,6.23
2018-04-28T14:54:26.588Z,5.57
2018-04-28T14:56:54.741Z,5.43
2018-04-28T14:59:29.331Z,7.10
2018-04-28T15:01:58.488Z,3.93
2018-04-28T15:04:31.138Z,5.67
2018-04-28T15:07:01.044Z,6.30
2018-04-28T15:09:45.915Z,4.83
2018-04-28T15:12:14.568Z,5.90
2018-04-28T15:14:48.745Z,6.30
2018-04-28T15:17:17.065Z,4.30
2018-04-28T15:19:48.593Z,3.77
2018-04-28T15:22:16.675Z,4.80
2018-04-28T15:24:45.807Z,5.20
2018-04-28T15:27:13.981Z,5.33
2018-04-28T15:29:42.090Z,4.33
2018-04-28T15:32:12.906Z,4.47
2018-04-28T15:34:41.090Z,6.43
2018-04-28T15:37:10.529Z,5.07
2018-04-28T15:39:38.636Z,5.93
2018-04-28T15:42:06.766Z,4.97
2018-04-28T15:44:39.078Z,4.70
2018-04-28T15:47:08.168Z,5.43
2018-04-28T15:49:39.417Z,5.50
2018-04-28T15:52:21.496Z,5.87
2018-04-28T15:54:49.731Z,5.43
2018-04-28T15:57:17.908Z,6.30
2018-04-28T15:59:46.005Z,5.20
2018-04-28T16:02:15.706Z,5.53
2018-04-28T16:04:45.347Z,6.03
2018-04-28T16:07:13.434Z,6.53
2018-04-28T16:09:41.831Z,3.63
2018-04-28T16:12:09.936Z,5.20
2018-04-28T16:14:39.131Z,4.80
2018-04-28T16:17:08.890Z,4.30
2018-04-28T16:19:37.841Z,5.50
2018-04-28T16:22:06.864Z,5.80
2018-04-28T16:24:35.943Z,4.97
2018-04-28T16:27:05.028Z,7.23
2018-04-28T16:29:34.188Z,6.50
2018-04-28T16:32:03.363Z,6.00
2018-04-28T16:34:32.443Z,7.07
2018-04-28T16:37:02.610Z,4.70
2018-04-28T16:39:32.802Z,5.27
2018-04-28T16:42:00.901Z,5.70
2018-04-28T16:44:29.132Z,7.73
2018-04-28T16:46:57.220Z,6.70
2018-04-28T16:49:28.553Z,5.80
2018-04-28T16:52:02.413Z,6.47
2018-04-28T16:54:30.500Z,5.93
2018-04-28T16:57:04.290Z,4.90
2018-04-28T16:59:36.122Z,6.90
2018-04-28T17:02:04.225Z,7.23
2018-04-28T17:04:32.370Z,6.17
2018-04-28T17:07:04.798Z,6.53
2018-04-28T17:09:40.026Z,6.47
2018-04-28T17:12:09.148Z,6.73
2018-04-28T17:14:38.221Z,4.67
2018-04-28T17:17:08.432Z,5.80
2018-04-28T17:19:36.558Z,6.77
2018-04-28T17:22:05.461Z,5.53
2018-04-28T17:24:33.593Z,5.47
2018-04-28T17:27:05.962Z,7.40
2018-04-28T17:29:38.577Z,5.57
2018-04-28T17:32:06.670Z,4.80
2018-04-28T17:34:35.548Z,6.20
2018-04-28T17:37:05.758Z,4.13
2018-04-28T17:39:33.837Z,5.10
2018-04-28T17:42:01.929Z,4.80
2018-04-28T17:44:30.055Z,4.60
2018-04-28T17:47:00.154Z,6.13
2018-04-28T17:49:29.275Z,4.20
2018-04-28T17:51:57.422Z,5.03
2018-04-28T17:54:27.519Z,5.80
2018-04-28T17:56:55.674Z,5.63
2018-04-28T17:59:24.169Z,6.43
2018-04-28T18:01:54.292Z,5.90
2018-04-28T18:04:22.455Z,5.57
2018-04-28T18:06:51.343Z,6.00
2018-04-28T18:09:32.045Z,5.77
2018-04-28T18:12:08.125Z,7.10
2018-04-28T18:14:36.314Z,5.07
2018-04-28T18:17:04.736Z,7.40
2018-04-28T18:19:32.910Z,8.40
2018-04-28T18:22:03.170Z,5.00
2018-04-28T18:24:31.344Z,5.57
2018-04-28T18:27:00.472Z,5.23
2018-04-28T18:29:32.712Z,5.33
2018-04-28T18:32:01.402Z,6.70
2018-04-28T18:34:30.946Z,7.93
2018-04-28T18:36:59.055Z,5.50
2018-04-28T18:39:38.681Z,7.77
2018-04-28T18:42:07.621Z,10.00
2018-04-28T18:44:37.282Z,10.90
2018-04-28T18:47:05.573Z,10.70
2018-04-28T18:49:33.687Z,10.53
2018-04-28T18:52:01.853Z,10.87
2018-04-28T18:54:30.970Z,9.73
2018-04-28T18:57:01.008Z,12.63
2018-04-28T18:59:31.390Z,13.93
2018-04-28T19:01:59.556Z,12.77
2018-04-28T19:04:29.420Z,12.40
2018-04-28T19:06:58.522Z,11.83
2018-04-28T19:09:26.643Z,11.93
2018-04-28T19:11:55.759Z,13.57
2018-04-28T19:14:25.950Z,13.10
2018-04-28T19:16:55.064Z,13.13
2018-04-28T19:19:25.131Z,13.17
2018-04-28T19:21:54.318Z,10.60
2018-04-28T19:24:23.439Z,9.90
2018-04-28T19:26:51.908Z,9.93
2018-04-28T19:29:21.923Z,9.87
2018-04-28T19:31:50.019Z,8.97
2018-04-28T19:34:18.267Z,7.97
2018-04-28T19:36:46.385Z,7.77
2018-04-28T19:39:14.540Z,7.20
2018-04-28T19:41:42.630Z,7.53
2018-04-28T19:44:15.868Z,7.00
2018-04-28T19:46:45.320Z,6.60
2018-04-28T19:49:13.448Z,7.73
2018-04-28T19:51:42.474Z,7.40
2018-04-28T19:54:10.560Z,6.57
2018-04-28T19:56:38.696Z,7.20
2018-04-28T19:59:08.585Z,4.97
2018-04-28T20:01:37.648Z,5.90
2018-04-28T20:04:05.789Z,6.13
2018-04-28T20:06:35.862Z,5.17
2018-04-28T20:09:15.755Z,4.60
2018-04-28T20:11:43.855Z,7.73
2018-04-28T20:14:12.035Z,5.60
2018-04-28T20:16:42.064Z,5.70
2018-04-28T20:19:13.121Z,6.57
2018-04-28T20:21:41.274Z,5.70
2018-04-28T20:24:23.280Z,5.83
2018-04-28T20:26:52.116Z,5.67
2018-04-28T20:29:24.624Z,5.67
2018-04-28T20:31:53.825Z,4.87
2018-04-28T20:34:21.907Z,5.23
2018-04-28T20:36:50.185Z,5.10
2018-04-28T20:39:18.270Z,5.60
2018-04-28T20:41:46.376Z,5.40
2018-04-28T20:44:15.252Z,6.37
2018-04-28T20:46:46.316Z,6.37
2018-04-28T20:49:16.457Z,5.13
2018-04-28T20:51:46.069Z,6.93
2018-04-28T20:54:14.237Z,8.40
2018-04-28T20:56:43.056Z,4.87
2018-04-28T20:59:14.590Z,4.97
2018-04-28T21:01:42.701Z,5.67
2018-04-28T21:04:10.801Z,5.03
2018-04-28T21:06:40.906Z,5.77
2018-04-28T21:09:09.000Z,5.60
2018-04-28T21:11:38.523Z,6.27
2018-04-28T21:14:06.624Z,5.83
2018-04-28T21:16:34.738Z,6.90
2018-04-28T21:19:02.900Z,5.50
2018-04-28T21:21:32.654Z,7.03
2018-04-28T21:24:01.674Z,6.37
2018-04-28T21:26:39.589Z,5.30
2018-04-28T21:29:07.698Z,5.37
2018-04-28T21:31:37.053Z,5.10
2018-04-28T21:34:05.977Z,6.10
2018-04-28T21:36:40.196Z,6.10
2018-04-28T21:39:08.402Z,6.60
2018-04-28T21:41:38.407Z,5.80
2018-04-28T21:44:06.496Z,5.13
2018-04-28T21:46:34.585Z,6.03
2018-04-28T21:49:05.926Z,7.53
2018-04-28T21:51:34.564Z,6.17
2018-04-28T21:54:03.513Z,3.90
2018-04-28T21:56:32.562Z,4.23
2018-04-28T21:59:00.656Z,4.20
2018-04-28T22:01:28.813Z,4.30
2018-04-28T22:03:57.830Z,4.87
2018-04-28T22:06:25.930Z,4.10
2018-04-28T22:08:54.097Z,6.33
2018-04-28T22:11:25.877Z,4.50
2018-04-28T22:13:54.005Z,5.50
2018-04-28T22:16:22.123Z,4.57
2018-04-28T22:18:51.142Z,5.37
2018-04-28T22:21:20.209Z,7.17
2018-04-28T22:23:49.071Z,7.60
2018-04-28T22:26:18.183Z,6.10
2018-04-28T22:28:46.267Z,6.47
2018-04-28T22:31:15.123Z,7.33
2018-04-28T22:33:43.206Z,7.67
2018-04-28T22:36:12.979Z,8.00
2018-04-28T22:38:42.066Z,7.60
2018-04-28T22:41:11.184Z,7.50
2018-04-28T22:43:44.959Z,5.43
2018-04-28T22:46:14.704Z,6.20
2018-04-28T22:48:45.854Z,5.70
2018-04-28T22:51:16.294Z,6.27
2018-04-28T22:53:45.120Z,6.40
2018-04-28T22:56:13.215Z,6.90
2018-04-28T22:58:41.325Z,6.17
2018-04-28T23:01:09.489Z,6.83
2018-04-28T23:03:38.544Z,6.80
2018-04-28T23:06:06.677Z,5.43
2018-04-28T23:08:34.857Z,6.83
2018-04-28T23:11:03.825Z,7.13
2018-04-28T23:13:33.871Z,6.23
2018-04-28T23:16:02.962Z,7.27
2018-04-28T23:18:31.076Z,6.70
2018-04-28T23:20:59.156Z,6.20
2018-04-28T23:23:30.989Z,6.20
2018-04-28T23:26:02.014Z,5.60
2018-04-28T23:28:30.133Z,6.57
2018-04-28T23:30:59.785Z,6.83
2018-04-28T23:33:28.860Z,7.83
2018-04-28T23:35:57.916Z,7.33
2018-04-28T23:38:30.092Z,6.53
2018-04-28T23:41:00.087Z,7.20
2018-04-28T23:43:35.456Z,7.00
2018-04-28T23:46:03.624Z,6.93
2018-04-28T23:48:31.749Z,7.70
2018-04-28T23:51:10.144Z,7.37
2018-04-28T23:53:44.177Z,7.00
2018-04-28T23:56:12.293Z,9.07
2018-04-28T23:58:42.371Z,7.53
